Time;durP1;ratioP1;P1;durP2;ratioP2;P2;SDS_P1;SDS_P2;PMS_P1;PMS_P2;Temp;Humidity;BMP_temperature;BMP_pressure;BME280_temperature;BME280_humidity;BME280_pressure;Samples;Min_cycle;Max_cycle;Signal;HPM_P1;HPM_P2
2023/11/05 00:01:26;;;;;;;6.23;1.13;;;10.30;99.90;;;;;;5076347;28;20013;-79
2023/11/05 00:03:52;;;;;;;13.23;0.80;;;10.30;99.90;;;;;;5073503;28;20088;-79
2023/11/05 00:06:18;;;;;;;11.23;1.52;;;10.30;99.90;;;;;;5068205;28;20033;-79
2023/11/05 00:08:43;;;;;;;12.17;1.50;;;10.30;99.90;;;;;;5065194;28;20033;-79
2023/11/05 00:11:09;;;;;;;11.57;1.37;;;10.40;99.90;;;;;;5066076;28;20056;-79
2023/11/05 00:13:34;;;;;;;9.07;1.63;;;10.40;99.90;;;;;;5064110;28;20140;-79
2023/11/05 00:16:00;;;;;;;10.40;1.37;;;10.40;99.90;;;;;;5065768;28;20594;-79
2023/11/05 00:18:26;;;;;;;11.23;1.35;;;10.40;99.90;;;;;;5066713;28;20044;-79
2023/11/05 00:20:51;;;;;;;8.65;1.15;;;10.50;99.90;;;;;;5098022;28;20028;-80
2023/11/05 00:23:17;;;;;;;11.98;1.58;;;10.50;99.90;;;;;;5065439;28;20025;-79
2023/11/05 00:25:43;;;;;;;11.13;1.63;;;10.50;99.90;;;;;;5065334;28;20021;-81
2023/11/05 00:28:08;;;;;;;11.63;1.98;;;10.60;99.90;;;;;;5065367;28;20018;-80
2023/11/05 00:30:34;;;;;;;12.50;1.50;;;10.60;99.90;;;;;;5063842;28;20080;-80
2023/11/05 00:33:00;;;;;;;11.70;1.27;;;10.60;99.90;;;;;;5065473;28;20029;-80
2023/11/05 00:35:26;;;;;;;7.85;0.93;;;10.60;99.90;;;;;;5064870;28;20067;-81
2023/11/05 00:37:51;;;;;;;9.27;1.20;;;10.70;99.90;;;;;;5065348;28;20028;-81
2023/11/05 00:40:17;;;;;;;9.32;1.48;;;10.70;99.90;;;;;;5065739;28;20481;-81
2023/11/05 00:42:43;;;;;;;11.47;2.03;;;10.70;99.90;;;;;;5063937;28;20017;-81
2023/11/05 00:45:09;;;;;;;8.45;1.55;;;10.70;99.90;;;;;;5065067;28;20025;-81
2023/11/05 00:47:35;;;;;;;16.30;1.80;;;10.70;99.90;;;;;;5064750;28;20029;-81
2023/11/05 00:50:00;;;;;;;13.40;2.20;;;10.60;99.90;;;;;;5066603;28;20366;-81
2023/11/05 00:52:28;;;;;;;12.75;1.58;;;10.60;99.90;;;;;;5063999;28;20044;-81
2023/11/05 00:54:53;;;;;;;9.52;1.40;;;10.60;99.90;;;;;;5064142;28;20055;-81
2023/11/05 00:57:20;;;;;;;7.93;1.83;;;10.60;99.90;;;;;;5098918;28;20491;-81
2023/11/05 00:59:46;;;;;;;14.15;1.65;;;10.60;99.90;;;;;;5063476;28;20032;-81
2023/11/05 01:02:11;;;;;;;9.88;1.50;;;10.60;99.90;;;;;;5066448;28;20045;-80
2023/11/05 01:04:37;;;;;;;8.93;1.33;;;10.60;99.90;;;;;;5062944;28;20488;-80
2023/11/05 01:07:03;;;;;;;5.97;1.00;;;10.60;99.90;;;;;;5064605;28;20477;-81
2023/11/05 01:09:28;;;;;;;9.32;1.45;;;10.60;99.90;;;;;;5063800;28;20017;-81
2023/11/05 01:11:54;;;;;;;14.48;1.38;;;10.60;99.90;;;;;;5064359;28;20024;-80
2023/11/05 01:14:20;;;;;;;12.97;1.50;;;10.60;99.90;;;;;;5064579;28;20037;-80
2023/11/05 01:16:45;;;;;;;17.05;1.50;;;10.60;99.90;;;;;;5062991;28;20067;-80
2023/11/05 01:19:11;;;;;;;10.65;1.55;;;10.60;99.90;;;;;;5064893;28;20686;-80
2023/11/05 01:21:39;;;;;;;13.65;1.35;;;10.60;99.90;;;;;;5063943;28;20025;-80
2023/11/05 01:24:05;;;;;;;8.60;1.70;;;10.70;99.90;;;;;;5064859;28;20036;-80
2023/11/05 01:26:31;;;;;;;13.38;1.60;;;10.70;99.90;;;;;;5063216;28;20017;-80
2023/11/05 01:28:57;;;;;;;13.35;1.88;;;10.80;99.90;;;;;;5063564;28;20029;-80
2023/11/05 01:31:23;;;;;;;4.63;0.98;;;10.80;99.90;;;;;;5064348;28;20013;-80
2023/11/05 01:33:48;;;;;;;9.90;1.60;;;10.80;99.90;;;;;;5062759;28;20025;-80
2023/11/05 01:36:14;;;;;;;12.50;1.00;;;10.80;99.90;;;;;;5064301;28;20717;-80
2023/11/05 01:38:40;;;;;;;12.15;1.27;;;10.80;99.90;;;;;;5062494;28;20033;-81
2023/11/05 01:41:06;;;;;;;8.82;1.23;;;10.90;99.90;;;;;;5064301;28;20021;-82
2023/11/05 01:43:31;;;;;;;8.02;1.17;;;10.90;99.90;;;;;;5062611;28;20017;-81
2023/11/05 01:45:57;;;;;;;12.13;1.52;;;10.90;99.90;;;;;;5064503;28;20017;-79
2023/11/05 01:48:23;;;;;;;9.30;1.10;;;10.90;99.90;;;;;;5065769;28;20073;-81
2023/11/05 01:50:49;;;;;;;10.48;1.05;;;10.90;99.90;;;;;;5063574;28;20021;-81
2023/11/05 01:53:15;;;;;;;9.57;1.05;;;10.90;99.90;;;;;;5066170;28;20044;-82
2023/11/05 01:55:41;;;;;;;12.35;1.20;;;10.90;99.90;;;;;;5063224;28;20084;-81
2023/11/05 01:58:07;;;;;;;7.35;1.17;;;10.90;99.90;;;;;;5064113;28;20021;-81
2023/11/05 02:00:33;;;;;;;7.78;0.77;;;10.90;99.90;;;;;;5062175;28;20393;-81
2023/11/05 02:02:59;;;;;;;6.15;1.17;;;10.90;99.90;;;;;;5063910;28;20048;-82
2023/11/05 02:05:25;;;;;;;9.02;1.20;;;10.90;99.90;;;;;;5062883;28;20472;-81
2023/11/05 02:07:50;;;;;;;8.98;1.38;;;10.90;99.90;;;;;;5062775;28;20071;-79
2023/11/05 02:10:16;;;;;;;5.93;1.00;;;10.90;99.90;;;;;;5063269;28;20033;-81
2023/11/05 02:12:59;;;;;;;11.45;1.60;;;10.90;99.90;;;;;;5095446;28;20476;-81
2023/11/05 02:15:27;;;;;;;8.43;1.35;;;10.80;99.90;;;;;;5063725;28;20029;-80
2023/11/05 02:17:53;;;;;;;9.55;1.20;;;10.90;99.90;;;;;;5061508;28;20063;-80
2023/11/05 02:20:18;;;;;;;10.63;1.00;;;10.90;99.90;;;;;;5063103;28;20029;-82
2023/11/05 02:22:47;;;;;;;10.13;1.40;;;10.90;99.90;;;;;;5063336;28;20103;-81
2023/11/05 02:25:18;;;;;;;9.25;1.23;;;10.80;99.90;;;;;;5061949;28;20055;-80
2023/11/05 02:27:46;;;;;;;12.73;1.38;;;10.90;99.90;;;;;;5063248;28;20031;-81
2023/11/05 02:30:15;;;;;;;10.00;1.35;;;10.90;99.90;;;;;;5061892;28;20320;-81
2023/11/05 02:32:41;;;;;;;8.90;1.00;;;10.90;99.90;;;;;;5064130;28;20029;-81
2023/11/05 02:35:07;;;;;;;12.90;1.50;;;10.90;99.90;;;;;;5062237;28;20051;-82
2023/11/05 02:37:33;;;;;;;8.35;1.35;;;10.90;99.90;;;;;;5062896;28;20024;-82
2023/11/05 02:39:59;;;;;;;8.10;1.30;;;10.80;99.90;;;;;;5063016;28;20037;-81
2023/11/05 02:42:25;;;;;;;11.30;0.95;;;10.90;99.90;;;;;;5061544;28;20032;-82
2023/11/05 02:44:51;;;;;;;11.07;1.13;;;10.80;99.90;;;;;;5063031;28;20021;-82
2023/11/05 02:47:17;;;;;;;9.60;1.35;;;10.80;99.90;;;;;;5060951;28;20028;-82
2023/11/05 02:49:42;;;;;;;7.03;0.80;;;10.80;99.90;;;;;;5063119;28;20033;-82
2023/11/05 02:52:08;;;;;;;8.02;1.20;;;10.80;99.90;;;;;;5061415;28;20099;-81
2023/11/05 02:54:33;;;;;;;5.80;0.82;;;10.80;99.90;;;;;;5063893;28;20047;-81
2023/11/05 02:57:00;;;;;;;10.48;1.13;;;10.80;99.90;;;;;;5063710;28;20067;-82
2023/11/05 02:59:27;;;;;;;7.72;0.90;;;10.80;99.90;;;;;;5061581;28;20448;-82
2023/11/05 03:01:53;;;;;;;5.65;0.80;;;10.70;99.90;;;;;;5062360;28;20025;-81
2023/11/05 03:04:18;;;;;;;6.72;0.90;;;10.80;99.90;;;;;;5061125;28;20025;-81
2023/11/05 03:06:50;;;;;;;7.28;0.80;;;10.70;99.90;;;;;;5062886;28;20080;-82
2023/11/05 03:09:17;;;;;;;7.28;1.05;;;10.70;99.90;;;;;;5094706;28;20063;-82
2023/11/05 03:11:45;;;;;;;7.05;1.00;;;10.70;99.90;;;;;;5062241;28;20067;-81
2023/11/05 03:14:11;;;;;;;8.70;1.00;;;10.70;99.90;;;;;;5062472;28;20037;-81
2023/11/05 03:16:41;;;;;;;7.27;0.70;;;10.70;99.90;;;;;;5060499;28;20043;-81
2023/11/05 03:19:07;;;;;;;5.32;1.00;;;10.60;99.90;;;;;;5062491;28;20128;-81
2023/11/05 03:21:33;;;;;;;5.70;0.90;;;10.60;99.90;;;;;;5059744;28;20025;-81
2023/11/05 03:23:59;;;;;;;8.68;0.73;;;10.60;99.90;;;;;;5064018;28;20025;-82
2023/11/05 03:26:25;;;;;;;4.77;0.80;;;10.60;99.90;;;;;;5060999;28;20025;-81
2023/11/05 03:28:51;;;;;;;4.27;0.50;;;10.60;99.90;;;;;;5063205;28;20108;-81
2023/11/05 03:31:17;;;;;;;5.37;0.70;;;10.60;99.90;;;;;;5061795;28;20029;-81
2023/11/05 03:33:43;;;;;;;8.33;0.70;;;10.60;99.90;;;;;;5061013;28;20053;-81
2023/11/05 03:36:09;;;;;;;5.90;0.77;;;10.50;99.90;;;;;;5063682;28;20075;-81
2023/11/05 03:38:36;;;;;;;5.40;0.57;;;10.50;99.90;;;;;;5060508;28;20032;-80
2023/11/05 03:41:02;;;;;;;5.63;0.75;;;10.50;99.90;;;;;;5062059;28;20025;-82
2023/11/05 03:43:29;;;;;;;3.30;0.63;;;10.60;99.90;;;;;;5062359;28;20036;-81
2023/11/05 03:45:55;;;;;;;3.08;0.50;;;10.60;99.90;;;;;;5061451;28;20189;-81
2023/11/05 03:48:21;;;;;;;3.08;0.50;;;10.60;99.90;;;;;;5062966;28;20028;-81
2023/11/05 03:50:46;;;;;;;3.72;0.50;;;10.60;99.90;;;;;;5060795;28;20056;-81
2023/11/05 03:53:13;;;;;;;6.70;1.60;;;10.60;99.90;;;;;;5062144;28;20029;-81
2023/11/05 03:55:38;;;;;;;7.07;0.52;;;10.70;99.90;;;;;;5060305;28;20025;-81
2023/11/05 03:58:04;;;;;;;4.63;0.85;;;10.70;99.90;;;;;;5062369;28;20025;-81
2023/11/05 04:00:29;;;;;;;2.58;0.47;;;10.70;99.90;;;;;;5061199;28;20021;-82
2023/11/05 04:02:56;;;;;;;5.57;0.40;;;10.70;99.90;;;;;;5062077;28;20021;-82
2023/11/05 04:05:22;;;;;;;3.75;0.50;;;10.70;99.90;;;;;;5062604;28;20018;-83
2023/11/05 04:07:49;;;;;;;2.85;0.50;;;10.70;99.90;;;;;;5061052;28;20027;-82
2023/11/05 04:10:15;;;;;;;5.13;0.75;;;10.70;99.90;;;;;;5063278;28;20033;-81
2023/11/05 04:12:41;;;;;;;7.32;0.65;;;10.80;99.90;;;;;;5060363;28;20545;-81
2023/11/05 04:15:07;;;;;;;3.33;0.40;;;10.80;99.90;;;;;;5095340;28;20021;-82
2023/11/05 04:17:34;;;;;;;4.10;0.40;;;10.80;99.90;;;;;;5060491;28;20025;-81
2023/11/05 04:20:00;;;;;;;5.25;0.55;;;10.80;99.90;;;;;;5095123;28;20037;-81
2023/11/05 04:22:26;;;;;;;6.93;0.70;;;10.80;99.90;;;;;;5060976;28;20028;-82
2023/11/05 04:24:55;;;;;;;4.72;0.50;;;10.80;99.90;;;;;;5061154;28;20017;-82
2023/11/05 04:27:20;;;;;;;4.77;0.70;;;10.90;99.90;;;;;;5061507;28;20028;-82
2023/11/05 04:29:46;;;;;;;5.00;0.60;;;10.80;99.90;;;;;;5060915;28;20029;-82
2023/11/05 04:32:13;;;;;;;5.15;0.60;;;10.80;99.90;;;;;;5062264;28;20014;-82
2023/11/05 04:34:38;;;;;;;4.18;0.50;;;10.80;99.90;;;;;;5063532;28;20108;-82
2023/11/05 04:37:05;;;;;;;3.78;0.40;;;10.90;99.90;;;;;;5065698;28;20020;-82
2023/11/05 04:39:31;;;;;;;6.78;0.60;;;10.80;99.90;;;;;;5066085;28;20017;-81
2023/11/05 04:41:57;;;;;;;3.53;0.40;;;10.80;99.90;;;;;;5065820;28;20021;-81
2023/11/05 04:44:23;;;;;;;3.30;0.60;;;10.80;99.90;;;;;;5065008;28;20032;-81
2023/11/05 04:46:48;;;;;;;5.25;0.52;;;10.80;99.90;;;;;;5063622;28;20365;-81
2023/11/05 04:49:14;;;;;;;4.13;0.68;;;10.90;99.90;;;;;;5065120;28;20021;-81
2023/11/05 04:51:43;;;;;;;3.83;0.57;;;10.80;99.90;;;;;;5063447;28;20082;-82
2023/11/05 04:54:09;;;;;;;2.65;0.40;;;10.80;99.90;;;;;;5098640;28;20033;-81
2023/11/05 04:56:35;;;;;;;9.50;0.98;;;10.90;99.90;;;;;;5064315;28;20052;-81
2023/11/05 04:59:01;;;;;;;2.90;0.45;;;10.80;99.90;;;;;;5065439;28;20033;-81
2023/11/05 05:01:26;;;;;;;5.95;0.60;;;10.90;99.90;;;;;;5065013;28;20150;-81
2023/11/05 05:03:52;;;;;;;3.10;0.60;;;10.90;99.90;;;;;;5063132;28;20520;-82
2023/11/05 05:06:19;;;;;;;2.80;0.45;;;10.90;99.90;;;;;;5065034;28;20015;-82
2023/11/05 05:08:45;;;;;;;6.38;0.50;;;10.90;99.90;;;;;;5063248;28;20013;-81
2023/11/05 05:11:12;;;;;;;5.65;0.65;;;10.90;99.90;;;;;;5064845;28;20032;-81
2023/11/05 05:13:38;;;;;;;4.72;0.82;;;10.90;99.90;;;;;;5063201;28;20048;-81
2023/11/05 05:16:08;;;;;;;3.50;0.45;;;10.90;99.90;;;;;;5064261;28;20013;-81
2023/11/05 05:18:34;;;;;;;3.42;0.57;;;10.90;99.90;;;;;;5064983;28;20045;-81
2023/11/05 05:21:00;;;;;;;2.63;0.55;;;10.90;99.90;;;;;;5064774;28;20035;-81
2023/11/05 05:23:25;;;;;;;5.25;0.60;;;10.90;99.90;;;;;;5065054;28;20085;-81
2023/11/05 05:25:51;;;;;;;4.13;0.77;;;10.90;99.90;;;;;;5064425;28;20032;-81
2023/11/05 05:28:17;;;;;;;4.32;0.50;;;10.90;99.90;;;;;;5064391;28;20021;-81
2023/11/05 05:30:42;;;;;;;4.13;0.45;;;10.90;99.90;;;;;;5063341;28;20445;-81
2023/11/05 05:33:08;;;;;;;4.78;0.63;;;10.90;99.90;;;;;;5064071;28;20444;-82
2023/11/05 05:35:35;;;;;;;3.60;0.60;;;10.90;99.90;;;;;;5064073;28;20017;-81
2023/11/05 05:38:01;;;;;;;2.83;0.47;;;10.90;99.90;;;;;;5064506;28;20021;-80
2023/11/05 05:40:27;;;;;;;3.55;0.50;;;10.90;99.90;;;;;;5064286;28;20013;-81
2023/11/05 05:42:53;;;;;;;5.15;0.70;;;11.00;99.90;;;;;;5062419;28;20024;-81
2023/11/05 05:45:19;;;;;;;6.25;1.00;;;11.00;99.90;;;;;;5063122;28;20021;-81
2023/11/05 05:47:45;;;;;;;5.90;0.88;;;11.00;99.90;;;;;;5062683;28;20021;-80
2023/11/05 05:50:11;;;;;;;4.18;0.80;;;11.00;99.90;;;;;;5062874;28;20558;-81
2023/11/05 05:52:36;;;;;;;3.63;0.70;;;11.00;99.90;;;;;;5044594;28;20021;-81
2023/11/05 05:55:04;;;;;;;6.32;0.95;;;11.00;99.90;;;;;;5058717;28;20025;-81
2023/11/05 05:57:30;;;;;;;5.13;0.80;;;11.00;99.90;;;;;;5043876;28;20063;-81
2023/11/05 05:59:56;;;;;;;6.05;0.90;;;11.00;99.90;;;;;;5042044;28;20019;-81
2023/11/05 06:02:22;;;;;;;4.65;0.60;;;11.00;99.90;;;;;;5060392;28;20014;-81
2023/11/05 06:04:48;;;;;;;6.20;1.10;;;11.10;99.90;;;;;;5042185;28;20017;-81
2023/11/05 06:07:14;;;;;;;4.32;0.68;;;11.10;99.90;;;;;;5043857;28;20060;-82
2023/11/05 06:09:39;;;;;;;2.88;0.50;;;11.10;99.90;;;;;;5042956;28;20085;-82
2023/11/05 06:12:05;;;;;;;2.03;0.60;;;11.10;99.90;;;;;;5042420;28;20063;-82
2023/11/05 06:14:31;;;;;;;4.85;1.02;;;11.10;99.90;;;;;;5044817;28;20038;-82
2023/11/05 06:16:57;;;;;;;5.45;0.90;;;11.10;99.90;;;;;;5041976;28;20061;-81
2023/11/05 06:19:22;;;;;;;6.78;1.00;;;11.10;99.90;;;;;;5043376;28;20041;-82
2023/11/05 06:21:48;;;;;;;4.70;1.05;;;11.10;99.90;;;;;;5043258;28;20060;-81
2023/11/05 06:24:14;;;;;;;4.07;0.68;;;11.10;99.90;;;;;;5043396;28;20089;-81
2023/11/05 06:26:41;;;;;;;2.90;0.60;;;11.10;99.90;;;;;;5042824;28;20056;-81
2023/11/05 06:29:07;;;;;;;5.15;0.80;;;11.10;99.90;;;;;;5041426;28;20393;-81
2023/11/05 06:31:33;;;;;;;3.83;0.60;;;11.10;99.90;;;;;;5043344;28;20018;-81
2023/11/05 06:33:59;;;;;;;4.18;0.85;;;11.10;99.90;;;;;;5041748;28;20026;-81
2023/11/05 06:36:24;;;;;;;3.83;0.80;;;11.10;99.90;;;;;;5043434;28;20018;-83
2023/11/05 06:38:50;;;;;;;5.78;0.70;;;11.10;99.90;;;;;;5041078;28;20021;-82
2023/11/05 06:41:16;;;;;;;5.35;0.80;;;11.10;99.90;;;;;;5043406;28;20013;-80
2023/11/05 06:43:42;;;;;;;5.65;0.80;;;11.10;99.90;;;;;;5041849;28;20052;-80
2023/11/05 06:46:08;;;;;;;9.82;1.25;;;11.10;99.90;;;;;;5044971;28;20025;-80
2023/11/05 06:48:34;;;;;;;2.95;0.80;;;11.10;99.90;;;;;;5061601;28;20028;-79
2023/11/05 06:51:00;;;;;;;4.40;1.02;;;11.10;99.90;;;;;;5060479;28;20087;-80
2023/11/05 06:53:26;;;;;;;5.32;1.00;;;11.10;99.90;;;;;;5057813;28;20075;-79
2023/11/05 06:55:51;;;;;;;9.23;1.38;;;11.10;99.90;;;;;;5055213;28;20031;-80
2023/11/05 06:58:19;;;;;;;5.00;0.93;;;11.10;99.90;;;;;;5063769;28;20032;-80
2023/11/05 07:00:44;;;;;;;5.05;0.60;;;11.10;99.90;;;;;;5061484;28;20029;-80
2023/11/05 07:03:10;;;;;;;5.05;0.75;;;11.20;99.90;;;;;;5062082;28;20083;-80
2023/11/05 07:05:37;;;;;;;6.60;1.00;;;11.20;99.90;;;;;;5061314;28;20067;-80
2023/11/05 07:08:03;;;;;;;4.93;0.70;;;11.20;99.90;;;;;;5059761;28;20088;-80
2023/11/05 07:10:29;;;;;;;3.03;0.60;;;11.20;99.90;;;;;;5061972;28;20020;-80
2023/11/05 07:12:55;;;;;;;5.53;0.88;;;11.20;99.90;;;;;;5064320;28;20053;-80
2023/11/05 07:15:20;;;;;;;3.38;0.70;;;11.20;99.90;;;;;;5066687;28;20477;-80
2023/11/05 07:17:46;;;;;;;9.40;0.95;;;11.20;99.90;;;;;;5061281;28;20032;-78
2023/11/05 07:20:15;;;;;;;3.17;0.65;;;11.20;99.90;;;;;;5062071;28;20048;-80
2023/11/05 07:22:42;;;;;;;5.28;0.82;;;11.20;99.90;;;;;;5061737;28;20021;-80
2023/11/05 07:25:08;;;;;;;3.80;0.65;;;11.30;99.90;;;;;;5062398;28;20025;-80
2023/11/05 07:27:35;;;;;;;5.55;0.70;;;11.30;99.90;;;;;;5062104;28;20021;-80
2023/11/05 07:30:02;;;;;;;5.85;1.00;;;11.30;99.90;;;;;;5060417;28;20086;-80
2023/11/05 07:32:28;;;;;;;2.65;0.77;;;11.30;99.90;;;;;;5062396;28;20035;-80
2023/11/05 07:34:54;;;;;;;4.95;0.77;;;11.30;99.90;;;;;;5062722;28;20025;-80
2023/11/05 07:37:19;;;;;;;3.00;0.70;;;11.30;99.90;;;;;;5062847;28;20083;-80
2023/11/05 07:39:45;;;;;;;3.47;0.60;;;11.40;99.90;;;;;;5061786;28;20033;-80
2023/11/05 07:42:11;;;;;;;3.33;0.60;;;11.40;99.90;;;;;;5062463;28;20095;-80
2023/11/05 07:44:36;;;;;;;5.05;0.80;;;11.40;99.90;;;;;;5062033;28;20017;-80
2023/11/05 07:47:03;;;;;;;5.45;0.88;;;11.40;99.90;;;;;;5060583;28;20025;-80
2023/11/05 07:49:28;;;;;;;2.75;0.75;;;11.50;99.90;;;;;;5063719;28;20025;-80
2023/11/05 07:51:54;;;;;;;4.57;1.13;;;11.50;99.90;;;;;;5059546;28;20032;-80
2023/11/05 07:54:20;;;;;;;6.78;0.88;;;11.50;99.90;;;;;;5062680;28;20504;-80
2023/11/05 07:56:46;;;;;;;5.43;0.80;;;11.50;99.90;;;;;;5060772;28;20029;-80
2023/11/05 07:59:11;;;;;;;7.00;0.90;;;11.60;99.90;;;;;;5060736;28;20060;-80
2023/11/05 08:01:37;;;;;;;4.68;0.80;;;11.50;99.90;;;;;;5061700;28;20032;-80
2023/11/05 08:04:03;;;;;;;4.43;0.95;;;11.50;99.90;;;;;;5062341;28;20028;-80
2023/11/05 08:06:29;;;;;;;4.68;0.98;;;11.50;99.90;;;;;;5064082;28;20075;-80
2023/11/05 08:08:54;;;;;;;5.07;1.00;;;11.50;99.90;;;;;;5063682;28;20058;-80
2023/11/05 08:11:20;;;;;;;5.38;0.93;;;11.50;99.90;;;;;;5066040;28;20104;-80
2023/11/05 08:13:46;;;;;;;5.22;1.10;;;11.50;99.90;;;;;;5065201;28;20108;-80
2023/11/05 08:16:12;;;;;;;7.47;1.10;;;11.50;99.90;;;;;;5066587;28;20036;-80
2023/11/05 08:18:38;;;;;;;3.03;0.98;;;11.50;99.90;;;;;;5065663;28;20045;-80
2023/11/05 08:21:07;;;;;;;4.18;0.70;;;11.60;99.90;;;;;;5065084;28;20013;-80
2023/11/05 08:23:34;;;;;;;6.93;1.13;;;11.60;99.90;;;;;;5065889;28;20032;-80
2023/11/05 08:25:59;;;;;;;5.53;1.00;;;11.60;99.90;;;;;;5064315;28;20021;-80
2023/11/05 08:28:25;;;;;;;8.07;1.30;;;11.60;99.90;;;;;;5065284;28;20047;-80
2023/11/05 08:30:51;;;;;;;10.27;1.30;;;11.60;99.90;;;;;;5064786;28;20539;-80
2023/11/05 08:33:16;;;;;;;4.30;1.02;;;11.60;99.90;;;;;;5066108;28;20056;-80
2023/11/05 08:35:42;;;;;;;6.07;1.20;;;11.60;99.90;;;;;;5064974;28;20035;-79
2023/11/05 08:38:08;;;;;;;5.18;1.17;;;11.70;99.90;;;;;;5063527;28;20029;-79
2023/11/05 08:40:33;;;;;;;5.68;0.88;;;11.70;99.90;;;;;;5065610;28;20036;-80
2023/11/05 08:42:59;;;;;;;7.90;1.50;;;11.80;99.90;;;;;;5063937;28;20029;-82
2023/11/05 08:45:25;;;;;;;4.80;1.35;;;11.80;99.90;;;;;;5065958;28;20021;-81
2023/11/05 08:47:51;;;;;;;6.28;1.23;;;11.80;99.90;;;;;;5064638;28;20075;-79
2023/11/05 08:50:19;;;;;;;7.57;1.35;;;11.80;99.90;;;;;;5065031;28;20389;-80
2023/11/05 08:52:45;;;;;;;4.97;1.00;;;11.90;99.90;;;;;;5065054;28;20028;-79
2023/11/05 08:55:12;;;;;;;4.72;0.98;;;11.80;99.90;;;;;;5064019;28;20041;-79
2023/11/05 08:57:38;;;;;;;6.00;1.00;;;12.00;99.90;;;;;;5066137;28;20056;-79
2023/11/05 09:00:11;;;;;;;10.45;1.60;;;11.90;99.90;;;;;;5063017;28;20017;-80
2023/11/05 09:02:38;;;;;;;9.05;1.45;;;12.00;99.90;;;;;;5054082;28;20024;-80
2023/11/05 09:05:05;;;;;;;3.92;1.05;;;12.00;99.90;;;;;;5060447;28;20029;-80
2023/11/05 09:07:31;;;;;;;4.28;1.10;;;12.00;99.90;;;;;;5060817;28;20063;-80
2023/11/05 09:09:57;;;;;;;8.02;1.20;;;12.10;99.90;;;;;;5061639;28;20056;-80
2023/11/05 09:12:23;;;;;;;7.07;1.30;;;12.10;99.90;;;;;;5044490;28;20017;-81
2023/11/05 09:14:48;;;;;;;7.63;1.38;;;12.10;99.90;;;;;;5061664;28;20055;-81
2023/11/05 09:17:14;;;;;;;7.47;1.15;;;12.10;99.90;;;;;;5059824;28;20579;-80
2023/11/05 09:19:40;;;;;;;6.82;1.33;;;12.20;99.90;;;;;;5044098;28;20079;-80
2023/11/05 09:22:06;;;;;;;6.65;1.52;;;12.20;99.90;;;;;;5059988;28;20029;-80
2023/11/05 09:24:32;;;;;;;8.77;1.65;;;12.20;99.90;;;;;;5060617;28;20049;-80
2023/11/05 09:26:58;;;;;;;7.35;1.55;;;12.20;99.90;;;;;;5061232;28;20026;-80
2023/11/05 09:29:24;;;;;;;8.80;1.98;;;12.10;99.90;;;;;;5044007;28;20026;-80
2023/11/05 09:31:49;;;;;;;7.07;1.67;;;12.10;99.90;;;;;;5044446;28;20430;-80
2023/11/05 09:34:16;;;;;;;8.73;1.55;;;12.10;99.90;;;;;;5042236;28;20642;-80
2023/11/05 09:36:41;;;;;;;6.80;1.70;;;12.10;99.90;;;;;;5060791;28;20017;-80
2023/11/05 09:39:07;;;;;;;10.82;1.88;;;12.10;99.90;;;;;;5059670;28;20022;-79
2023/11/05 09:41:36;;;;;;;7.75;2.20;;;12.10;99.90;;;;;;5060898;28;20021;-80
2023/11/05 09:44:03;;;;;;;10.05;2.15;;;12.10;99.90;;;;;;5045545;28;20121;-80
2023/11/05 09:46:29;;;;;;;8.57;1.98;;;12.20;99.90;;;;;;5044059;28;20029;-80
2023/11/05 09:48:56;;;;;;;5.75;1.90;;;12.10;99.90;;;;;;5043508;28;20210;-80
2023/11/05 09:51:21;;;;;;;5.63;1.73;;;12.20;99.90;;;;;;5042473;28;20017;-81
2023/11/05 09:53:47;;;;;;;5.90;1.58;;;12.20;99.90;;;;;;5045258;28;20045;-80
2023/11/05 09:56:13;;;;;;;8.45;2.58;;;12.30;99.90;;;;;;5059294;28;20057;-81
2023/11/05 09:58:39;;;;;;;7.28;2.08;;;12.30;99.90;;;;;;5045164;28;20026;-81
2023/11/05 10:01:05;;;;;;;5.85;1.75;;;12.40;99.90;;;;;;5060317;28;20026;-80
2023/11/05 10:03:31;;;;;;;7.43;2.35;;;12.40;99.90;;;;;;5058916;28;20089;-80
2023/11/05 10:05:57;;;;;;;10.15;2.05;;;12.50;99.90;;;;;;5044102;28;20068;-80
2023/11/05 10:08:24;;;;;;;8.23;2.67;;;12.50;99.90;;;;;;5058576;28;20029;-81
2023/11/05 10:10:56;;;;;;;8.32;2.08;;;12.40;99.90;;;;;;5060291;28;20025;-81
2023/11/05 10:13:25;;;;;;;7.93;2.33;;;12.40;99.90;;;;;;5058480;28;20048;-81
2023/11/05 10:15:52;;;;;;;9.70;2.38;;;12.50;99.90;;;;;;5044447;28;20087;-80
2023/11/05 10:18:18;;;;;;;9.88;2.60;;;12.40;99.90;;;;;;5059383;28;20034;-80
2023/11/05 10:20:52;;;;;;;6.28;2.10;;;12.30;99.90;;;;;;5058586;28;20037;-80
2023/11/05 10:23:18;;;;;;;7.80;2.58;;;12.30;99.90;;;;;;5060295;28;20037;-81
2023/11/05 10:25:48;;;;;;;9.60;2.30;;;12.30;99.90;;;;;;5043147;28;20025;-81
2023/11/05 10:28:14;;;;;;;6.25;2.63;;;12.30;99.90;;;;;;5059964;28;20473;-81
2023/11/05 10:30:44;;;;;;;6.70;2.40;;;12.20;99.90;;;;;;5057549;28;20085;-80
2023/11/05 10:33:11;;;;;;;9.02;3.08;;;12.20;99.90;;;;;;5059037;28;20114;-81
2023/11/05 10:35:39;;;;;;;7.63;2.88;;;12.10;99.90;;;;;;5060033;28;20053;-81
2023/11/05 10:38:04;;;;;;;8.63;3.33;;;12.10;99.90;;;;;;5058253;28;20018;-81
2023/11/05 10:40:30;;;;;;;12.13;3.45;;;12.00;99.90;;;;;;5059902;28;20014;-81
2023/11/05 10:42:56;;;;;;;10.63;3.72;;;12.00;99.90;;;;;;5043004;28;20025;-81
2023/11/05 10:45:23;;;;;;;8.82;2.97;;;12.00;99.90;;;;;;5043724;28;20036;-81
2023/11/05 10:47:52;;;;;;;11.60;3.78;;;12.00;99.90;;;;;;5058613;28;20041;-81
2023/11/05 10:50:22;;;;;;;10.02;4.07;;;11.90;99.90;;;;;;5043753;28;20462;-81
2023/11/05 10:52:53;;;;;;;11.55;4.15;;;11.90;99.90;;;;;;5059697;28;20059;-81
2023/11/05 10:55:32;;;;;;;9.13;4.20;;;11.90;99.90;;;;;;5041396;28;20021;-81
2023/11/05 10:57:59;;;;;;;10.23;4.22;;;11.90;99.90;;;;;;5059393;28;20097;-81
2023/11/05 11:00:27;;;;;;;9.60;4.38;;;11.80;99.90;;;;;;5042084;28;20084;-81
2023/11/05 11:03:01;;;;;;;9.88;4.50;;;11.80;99.90;;;;;;5059550;28;20093;-81
2023/11/05 11:05:42;;;;;;;12.88;4.90;;;11.70;99.90;;;;;;5059350;28;20060;-80
2023/11/05 11:08:22;;;;;;;9.15;4.85;;;11.70;99.90;;;;;;5057472;28;20029;-80
2023/11/05 11:10:49;;;;;;;12.45;5.50;;;11.60;99.90;;;;;;5059504;28;20029;-81
2023/11/05 11:13:19;;;;;;;14.95;4.85;;;11.60;99.90;;;;;;5042219;28;20033;-80
2023/11/05 11:15:54;;;;;;;7.75;4.18;;;11.60;99.90;;;;;;5058872;28;20026;-81
2023/11/05 11:18:26;;;;;;;7.53;4.07;;;11.60;99.90;;;;;;5058612;28;20061;-80
2023/11/05 11:20:54;;;;;;;8.57;3.85;;;11.60;99.90;;;;;;5057266;28;20021;-80
2023/11/05 11:23:21;;;;;;;8.10;3.00;;;11.60;99.90;;;;;;5043964;28;20056;-80
2023/11/05 11:26:01;;;;;;;7.28;3.00;;;11.60;99.90;;;;;;5057617;28;20496;-81
2023/11/05 11:28:32;;;;;;;7.03;3.00;;;11.60;99.90;;;;;;5058322;28;20029;-81
2023/11/05 11:30:59;;;;;;;11.35;2.95;;;11.60;99.90;;;;;;5058172;28;20076;-80
2023/11/05 11:33:27;;;;;;;13.43;3.70;;;11.60;99.90;;;;;;5057779;28;20025;-80
2023/11/05 11:35:53;;;;;;;7.90;2.65;;;11.60;99.90;;;;;;5059293;28;20033;-80
2023/11/05 11:38:19;;;;;;;10.65;3.20;;;11.50;99.90;;;;;;5057459;28;20021;-81
2023/11/05 11:40:55;;;;;;;13.90;2.95;;;11.60;99.90;;;;;;5058847;28;20044;-80
2023/11/05 11:43:25;;;;;;;12.65;3.42;;;11.60;99.90;;;;;;5056379;28;20037;-80
2023/11/05 11:45:52;;;;;;;11.77;2.88;;;11.60;99.90;;;;;;5058562;28;20470;-81
2023/11/05 11:48:18;;;;;;;11.85;2.95;;;11.80;99.90;;;;;;5058863;28;20026;-80
2023/11/05 11:50:55;;;;;;;12.98;3.25;;;11.80;99.90;;;;;;5057748;28;20531;-80
2023/11/05 11:53:32;;;;;;;10.30;2.90;;;11.90;99.90;;;;;;5041909;28;20544;-81
2023/11/05 11:56:02;;;;;;;16.60;3.63;;;12.00;99.90;;;;;;5057182;28;20405;-81
2023/11/05 11:58:27;;;;;;;10.45;3.10;;;12.10;99.90;;;;;;5058445;28;20029;-81
2023/11/05 12:00:54;;;;;;;10.25;2.88;;;12.20;99.90;;;;;;5041452;28;20117;-81
2023/11/05 12:03:21;;;;;;;8.82;2.80;;;12.40;99.90;;;;;;5057845;28;20030;-81
2023/11/05 12:05:47;;;;;;;7.95;2.03;;;12.50;99.90;;;;;;5058631;28;20021;-80
2023/11/05 12:08:13;;;;;;;10.75;2.13;;;12.60;99.90;;;;;;5056908;28;20030;-80
2023/11/05 12:10:43;;;;;;;8.95;1.85;;;12.80;99.90;;;;;;5058573;28;20022;-81
2023/11/05 12:13:09;;;;;;;7.90;1.80;;;12.90;99.90;;;;;;5039663;28;20025;-81
2023/11/05 12:15:39;;;;;;;7.57;2.17;;;13.00;99.90;;;;;;5059159;28;20013;-80
2023/11/05 12:18:05;;;;;;;5.05;1.52;;;13.00;99.90;;;;;;5057928;28;20029;-80
2023/11/05 12:20:31;;;;;;;8.82;1.50;;;13.00;99.90;;;;;;5058398;28;20059;-80
2023/11/05 12:22:59;;;;;;;9.52;1.60;;;13.00;99.90;;;;;;5044035;28;20021;-81
2023/11/05 12:25:24;;;;;;;6.70;1.13;;;13.00;99.90;;;;;;5060216;28;20397;-80
2023/11/05 12:27:50;;;;;;;7.68;1.30;;;12.90;99.90;;;;;;5061903;28;20056;-81
2023/11/05 12:30:24;;;;;;;8.98;1.63;;;12.80;99.90;;;;;;5059347;28;20382;-81
2023/11/05 12:32:50;;;;;;;8.43;1.48;;;12.70;99.90;;;;;;5092637;28;20029;-80
2023/11/05 12:35:16;;;;;;;6.47;1.10;;;12.70;99.90;;;;;;5059290;28;20049;-82
2023/11/05 12:37:42;;;;;;;4.80;1.05;;;12.60;99.90;;;;;;5061714;28;20021;-81
2023/11/05 12:40:09;;;;;;;5.68;1.42;;;12.60;99.90;;;;;;5062872;28;20074;-80
2023/11/05 12:42:36;;;;;;;7.28;1.27;;;12.50;99.90;;;;;;5059349;28;20107;-80